createdAt,value
2018-05-27T00:00:38.242Z,23.54
2018-05-27T00:01:38.270Z,23.59
2018-05-27T00:02:38.289Z,23.51
2018-05-27T00:03:38.369Z,23.5
2018-05-27T00:04:38.373Z,23.54
2018-05-27T00:05:38.385Z,23.61
2018-05-27T00:06:38.141Z,23.51
2018-05-27T00:07:38.417Z,23.55
2018-05-27T00:08:38.430Z,23.5
2018-05-27T00:09:38.206Z,23.39
2018-05-27T00:10:38.504Z,23.37
2018-05-27T00:11:38.275Z,23.34
2018-05-27T00:12:38.017Z,23.27
2018-05-27T00:13:38.631Z,23.31
2018-05-27T00:14:38.592Z,23.36
2018-05-27T00:15:38.617Z,23.31
2018-05-27T00:16:38.678Z,23.28
2018-05-27T00:17:38.679Z,23.31
2018-05-27T00:18:38.680Z,23.24
2018-05-27T00:19:38.717Z,23.21
2018-05-27T00:20:38.466Z,23.21
2018-05-27T00:21:38.776Z,23.23
2018-05-27T00:22:38.802Z,23.21
2018-05-27T00:23:38.879Z,23.2
2018-05-27T00:24:38.569Z,23.2
2018-05-27T00:25:38.337Z,23.09
2018-05-27T00:26:38.633Z,23.13
2018-05-27T00:27:38.921Z,23.02
2018-05-27T00:28:39.017Z,23.05
2018-05-27T00:29:38.714Z,22.99
2018-05-27T00:30:39.012Z,22.99
2018-05-27T00:31:39.030Z,23.02
2018-05-27T00:32:39.053Z,23.02
2018-05-27T00:33:38.534Z,22.99
2018-05-27T00:34:39.122Z,22.98
2018-05-27T00:35:39.121Z,22.93
2018-05-27T00:36:39.182Z,22.9
2018-05-27T00:37:39.177Z,22.91
2018-05-27T00:38:39.211Z,22.84
2018-05-27T00:39:39.224Z,22.88
2018-05-27T00:40:39.238Z,22.84
2018-05-27T00:41:39.262Z,22.87
2018-05-27T00:42:39.028Z,22.85
2018-05-27T00:43:39.366Z,22.85
2018-05-27T00:44:39.070Z,22.75
2018-05-27T00:45:39.371Z,22.81
2018-05-27T00:46:39.148Z,22.75
2018-05-27T00:47:39.145Z,22.75
2018-05-27T00:48:39.163Z,22.68
2018-05-27T00:49:39.205Z,22.69
2018-05-27T00:50:39.482Z,22.69
2018-05-27T00:51:39.252Z,22.66
2018-05-27T00:52:39.538Z,22.59
2018-05-27T00:53:39.572Z,22.59
2018-05-27T00:54:39.592Z,22.57
2018-05-27T00:55:39.622Z,22.6
2018-05-27T00:56:39.620Z,22.63
2018-05-27T00:57:39.388Z,22.53
2018-05-27T00:58:39.689Z,22.48
2018-05-27T00:59:39.719Z,22.53
2018-05-27T01:00:39.735Z,22.47
2018-05-27T01:01:39.763Z,22.45
2018-05-27T01:02:39.508Z,22.48
2018-05-27T01:03:39.552Z,22.57
2018-05-27T01:04:39.563Z,22.55
2018-05-27T01:05:39.864Z,22.53
2018-05-27T01:06:39.616Z,22.5
2018-05-27T01:07:39.636Z,22.43
2018-05-27T01:08:39.661Z,22.43
2018-05-27T01:09:39.695Z,22.39
2018-05-27T01:10:39.769Z,22.36
2018-05-27T01:11:39.751Z,22.33
2018-05-27T01:12:40.061Z,22.35
2018-05-27T01:13:40.104Z,22.38
2018-05-27T01:14:40.105Z,22.33
2018-05-27T01:15:40.104Z,22.29
2018-05-27T01:16:40.129Z,22.32
2018-05-27T01:17:40.158Z,22.28
2018-05-27T01:18:39.910Z,22.22
2018-05-27T01:19:39.955Z,22.25
2018-05-27T01:20:39.958Z,22.23
2018-05-27T01:21:40.007Z,22.2
2018-05-27T01:22:40.272Z,22.22
2018-05-27T01:23:40.308Z,22.11
2018-05-27T01:24:40.057Z,22.13
2018-05-27T01:25:40.348Z,22.08
2018-05-27T01:26:40.104Z,22.06
2018-05-27T01:27:39.867Z,22.17
2018-05-27T01:28:40.509Z,22.07
2018-05-27T01:29:40.465Z,22.08
2018-05-27T01:30:39.936Z,21.98
2018-05-27T01:31:40.512Z,22.07
2018-05-27T01:32:40.240Z,22
2018-05-27T01:33:40.541Z,21.96
2018-05-27T01:34:40.302Z,22
2018-05-27T01:35:40.623Z,22
2018-05-27T01:36:40.365Z,21.93
2018-05-27T01:37:40.095Z,21.95
2018-05-27T01:38:40.674Z,21.92
2018-05-27T01:39:40.454Z,21.92
2018-05-27T01:40:40.174Z,21.91
2018-05-27T01:41:40.207Z,21.89
2018-05-27T01:42:40.493Z,21.91
2018-05-27T01:43:40.799Z,21.79
2018-05-27T01:44:40.804Z,21.8
2018-05-27T01:45:40.853Z,21.8
2018-05-27T01:46:40.837Z,21.83
2018-05-27T01:47:40.601Z,21.76
2018-05-27T01:48:40.368Z,21.8
2018-05-27T01:49:40.935Z,21.8
2018-05-27T01:50:40.670Z,21.72
2018-05-27T01:51:40.973Z,21.72
2018-05-27T01:52:40.999Z,21.72
2018-05-27T01:53:41.108Z,21.69
2018-05-27T01:54:41.071Z,21.66
2018-05-27T01:55:41.081Z,21.62
2018-05-27T01:56:40.552Z,21.61
2018-05-27T01:57:41.121Z,21.62
2018-05-27T01:58:40.894Z,21.6
2018-05-27T01:59:41.199Z,21.58
2018-05-27T02:00:40.946Z,21.58
2018-05-27T02:01:41.201Z,21.6
2018-05-27T02:02:40.709Z,21.58
2018-05-27T02:03:41.283Z,21.43
2018-05-27T02:04:41.281Z,21.57
2018-05-27T02:05:41.036Z,21.48
2018-05-27T02:06:41.063Z,21.43
2018-05-27T02:07:41.355Z,21.42
2018-05-27T02:08:41.402Z,21.37
2018-05-27T02:09:41.383Z,21.43
2018-05-27T02:10:41.143Z,21.43
2018-05-27T02:11:41.478Z,21.33
2018-05-27T02:12:41.483Z,21.4
2018-05-27T02:13:41.490Z,21.39
2018-05-27T02:14:41.541Z,21.46
2018-05-27T02:15:41.540Z,21.4
2018-05-27T02:16:41.557Z,21.36
2018-05-27T02:17:41.345Z,21.37
2018-05-27T02:18:41.633Z,21.36
2018-05-27T02:19:41.700Z,21.29
2018-05-27T02:20:41.677Z,21.36
2018-05-27T02:21:41.681Z,21.32
2018-05-27T02:22:41.721Z,21.3
2018-05-27T02:23:41.741Z,21.24
2018-05-27T02:24:41.754Z,21.24
2018-05-27T02:25:41.517Z,21.25
2018-05-27T02:26:41.564Z,21.24
2018-05-27T02:27:41.828Z,21.2
2018-05-27T02:28:41.839Z,21.21
2018-05-27T02:29:41.879Z,21.18
2018-05-27T02:30:41.641Z,21.22
2018-05-27T02:31:41.911Z,21.21
2018-05-27T02:32:41.940Z,21.14
2018-05-27T02:33:41.970Z,21.05
2018-05-27T02:34:41.984Z,21.11
2018-05-27T02:35:41.745Z,21.05
2018-05-27T02:36:41.783Z,20.97
2018-05-27T02:37:42.068Z,21.02
2018-05-27T02:38:41.829Z,21.02
2018-05-27T02:39:41.583Z,20.99
2018-05-27T02:40:42.150Z,21.03
2018-05-27T02:41:42.166Z,21.02
2018-05-27T02:42:42.171Z,20.97
2018-05-27T02:43:41.679Z,20.88
2018-05-27T02:44:42.229Z,20.96
2018-05-27T02:45:42.331Z,20.92
2018-05-27T02:46:42.289Z,20.93
2018-05-27T02:47:42.299Z,20.93
2018-05-27T02:48:42.314Z,20.84
2018-05-27T02:49:42.362Z,20.85
2018-05-27T02:50:42.145Z,20.9
2018-05-27T02:51:42.130Z,20.87
2018-05-27T02:52:42.418Z,20.82
2018-05-27T02:53:42.424Z,20.8
2018-05-27T02:54:42.464Z,20.82
2018-05-27T02:55:42.487Z,20.82
2018-05-27T02:56:42.250Z,20.82
2018-05-27T02:57:42.273Z,20.77
2018-05-27T02:58:42.569Z,20.77
2018-05-27T02:59:42.790Z,20.72
2018-05-27T03:00:42.600Z,20.74
2018-05-27T03:01:42.356Z,20.72
2018-05-27T03:02:42.651Z,20.74
2018-05-27T03:03:42.408Z,20.69
2018-05-27T03:04:42.687Z,20.66
2018-05-27T03:05:42.442Z,20.58
2018-05-27T03:06:42.741Z,20.63
2018-05-27T03:07:42.742Z,20.63
2018-05-27T03:08:42.804Z,20.62
2018-05-27T03:09:42.266Z,20.62
2018-05-27T03:10:42.563Z,20.58
2018-05-27T03:11:42.863Z,20.6
2018-05-27T03:12:42.879Z,20.6
2018-05-27T03:13:42.916Z,20.59
2018-05-27T03:14:42.919Z,20.55
2018-05-27T03:15:42.698Z,20.58
2018-05-27T03:16:42.694Z,20.5
2018-05-27T03:17:43.014Z,20.58
2018-05-27T03:18:42.758Z,20.56
2018-05-27T03:19:42.780Z,20.47
2018-05-27T03:20:43.075Z,20.5
2018-05-27T03:21:43.091Z,20.51
2018-05-27T03:22:43.085Z,20.43
2018-05-27T03:23:42.865Z,20.41
2018-05-27T03:24:43.160Z,20.44
2018-05-27T03:25:43.179Z,20.51
2018-05-27T03:26:42.917Z,20.47
2018-05-27T03:27:43.237Z,20.5
2018-05-27T03:28:43.231Z,20.4
2018-05-27T03:29:42.993Z,20.52
2018-05-27T03:30:42.752Z,20.43
2018-05-27T03:31:43.309Z,20.41
2018-05-27T03:32:43.331Z,20.52
2018-05-27T03:33:43.340Z,20.43
2018-05-27T03:34:43.109Z,20.43
2018-05-27T03:35:43.398Z,20.34
2018-05-27T03:36:43.169Z,20.44
2018-05-27T03:37:43.192Z,20.43
2018-05-27T03:38:43.201Z,20.37
2018-05-27T03:39:43.225Z,20.37
2018-05-27T03:40:43.236Z,20.39
2018-05-27T03:41:43.542Z,20.39
2018-05-27T03:42:43.280Z,20.31
2018-05-27T03:43:43.596Z,20.26
2018-05-27T03:44:43.329Z,20.31
2018-05-27T03:45:43.652Z,20.29
2018-05-27T03:46:43.661Z,20.29
2018-05-27T03:47:43.674Z,20.31
2018-05-27T03:48:43.432Z,20.25
2018-05-27T03:49:43.726Z,20.26
2018-05-27T03:50:43.746Z,20.25
2018-05-27T03:51:43.760Z,20.31
2018-05-27T03:52:43.520Z,20.28
2018-05-27T03:53:43.837Z,20.29
2018-05-27T03:54:43.841Z,20.31
2018-05-27T03:55:43.880Z,20.22
2018-05-27T03:56:43.866Z,20.18
2018-05-27T03:57:43.631Z,20.18
2018-05-27T03:58:43.952Z,20.29
2018-05-27T03:59:43.959Z,20.13
2018-05-27T04:00:43.962Z,20.16
2018-05-27T04:01:43.997Z,20.16
2018-05-27T04:02:44.046Z,20.14
2018-05-27T04:03:44.027Z,20.11
2018-05-27T04:04:44.077Z,20.14
2018-05-27T04:05:43.821Z,20.18
2018-05-27T04:06:44.124Z,20.16
2018-05-27T04:07:44.148Z,20.16
2018-05-27T04:08:44.150Z,20.11
2018-05-27T04:09:44.192Z,20.21
2018-05-27T04:10:44.228Z,20.14
2018-05-27T04:11:44.225Z,20.16
2018-05-27T04:12:44.262Z,20.14
2018-05-27T04:13:44.267Z,20.18
2018-05-27T04:14:44.272Z,20.13
2018-05-27T04:15:44.140Z,20.1
2018-05-27T04:16:44.059Z,20.1
2018-05-27T04:17:43.822Z,20.16
2018-05-27T04:18:43.849Z,20.13
2018-05-27T04:19:43.860Z,20.09
2018-05-27T04:20:44.214Z,20.14
2018-05-27T04:21:43.899Z,20.06
2018-05-27T04:22:44.466Z,20.18
2018-05-27T04:23:44.512Z,20.04
2018-05-27T04:24:44.510Z,20.11
2018-05-27T04:25:44.266Z,20.06
2018-05-27T04:26:44.542Z,20.03
2018-05-27T04:27:44.325Z,20.04
2018-05-27T04:28:44.688Z,20.13
2018-05-27T04:29:44.365Z,20.09
2018-05-27T04:30:44.661Z,20.02
2018-05-27T04:31:44.145Z,20.02
2018-05-27T04:32:44.699Z,20.07
2018-05-27T04:33:44.454Z,20.07
2018-05-27T04:34:44.753Z,20.02
2018-05-27T04:35:44.759Z,20.02
2018-05-27T04:36:44.792Z,20.04
2018-05-27T04:37:44.821Z,20.07
2018-05-27T04:38:44.830Z,20.02
2018-05-27T04:39:44.582Z,20.02
2018-05-27T04:40:44.890Z,20.02
2018-05-27T04:41:44.356Z,20
2018-05-27T04:42:44.925Z,20.07
2018-05-27T04:43:44.933Z,20.07
2018-05-27T04:44:44.960Z,19.99
2018-05-27T04:45:45.021Z,20.04
2018-05-27T04:46:44.738Z,19.96
2018-05-27T04:47:44.757Z,20.06
2018-05-27T04:48:45.072Z,20.06
2018-05-27T04:49:45.066Z,20.07
2018-05-27T04:50:44.839Z,20.04
2018-05-27T04:51:44.868Z,20.02
2018-05-27T04:52:44.883Z,20.03
2018-05-27T04:53:44.890Z,20.03
2018-05-27T04:54:45.239Z,20.02
2018-05-27T04:55:44.945Z,20.07
2018-05-27T04:56:45.230Z,20.02
2018-05-27T04:57:44.980Z,20.07
2018-05-27T04:58:45.288Z,20.04
2018-05-27T04:59:45.311Z,20.06
2018-05-27T05:00:45.069Z,20.03
2018-05-27T05:01:45.347Z,20.1
2018-05-27T05:02:45.363Z,20.03
2018-05-27T05:03:45.112Z,20.02
2018-05-27T05:04:45.153Z,20.09
2018-05-27T05:05:45.450Z,20.18
2018-05-27T05:06:45.455Z,20.04
2018-05-27T05:07:45.506Z,20.16
2018-05-27T05:08:45.506Z,20.06
2018-05-27T05:09:45.525Z,20.07
2018-05-27T05:10:45.011Z,20.18
2018-05-27T05:11:45.305Z,20.14
2018-05-27T05:12:45.594Z,20.19
2018-05-27T05:13:45.622Z,20.14
2018-05-27T05:14:45.373Z,20.13
2018-05-27T05:15:45.671Z,20.1
2018-05-27T05:16:45.417Z,20.13
2018-05-27T05:17:45.425Z,20.14
2018-05-27T05:18:45.479Z,20.13
2018-05-27T05:19:45.749Z,20.14
2018-05-27T05:20:45.823Z,20.22
2018-05-27T05:21:45.519Z,20.14
2018-05-27T05:22:45.833Z,20.1
2018-05-27T05:23:45.829Z,20.18
2018-05-27T05:24:45.861Z,20.14
2018-05-27T05:25:45.862Z,20.1
2018-05-27T05:26:45.916Z,20.21
2018-05-27T05:27:46.030Z,20.28
2018-05-27T05:28:45.950Z,20.14
2018-05-27T05:29:45.974Z,20.26
2018-05-27T05:30:46.012Z,20.16
2018-05-27T05:31:45.470Z,20.25
2018-05-27T05:32:46.056Z,20.26
2018-05-27T05:33:46.062Z,20.14
2018-05-27T05:34:46.080Z,20.28
2018-05-27T05:35:45.835Z,20.28
2018-05-27T05:36:46.115Z,20.28
2018-05-27T05:37:46.164Z,20.26
2018-05-27T05:38:45.901Z,20.26
2018-05-27T05:39:46.199Z,20.31
2018-05-27T05:40:46.214Z,20.26
2018-05-27T05:41:45.948Z,20.25
2018-05-27T05:42:46.259Z,20.36
2018-05-27T05:43:46.116Z,20.31
2018-05-27T05:44:46.321Z,20.28
2018-05-27T05:45:46.065Z,20.39
2018-05-27T05:46:45.824Z,20.29
2018-05-27T05:47:46.363Z,20.4
2018-05-27T05:48:46.412Z,20.4
2018-05-27T05:49:46.151Z,20.48
2018-05-27T05:50:46.170Z,20.43
2018-05-27T05:51:46.453Z,20.4
2018-05-27T05:52:46.212Z,20.37
2018-05-27T05:53:46.521Z,20.52
2018-05-27T05:54:46.542Z,20.43
2018-05-27T05:55:46.535Z,20.44
2018-05-27T05:56:46.593Z,20.48
2018-05-27T05:57:46.324Z,20.5
2018-05-27T05:58:46.348Z,20.44
2018-05-27T05:59:46.377Z,20.44
2018-05-27T06:00:46.402Z,20.48
2018-05-27T06:01:46.709Z,20.51
2018-05-27T06:02:46.723Z,20.55
2018-05-27T06:03:46.477Z,20.56
2018-05-27T06:04:46.748Z,20.62
2018-05-27T06:05:46.777Z,20.65
2018-05-27T06:06:46.793Z,20.6
2018-05-27T06:07:46.560Z,20.63
2018-05-27T06:08:46.604Z,20.58
2018-05-27T06:09:46.867Z,20.65
2018-05-27T06:10:46.624Z,20.69
2018-05-27T06:11:46.906Z,20.75
2018-05-27T06:12:46.667Z,20.78
2018-05-27T06:13:46.938Z,20.77
2018-05-27T06:14:46.980Z,20.78
2018-05-27T06:15:46.740Z,20.8
2018-05-27T06:16:46.770Z,20.85
2018-05-27T06:17:47.044Z,20.87
2018-05-27T06:18:47.088Z,20.82
2018-05-27T06:19:47.215Z,20.85
2018-05-27T06:20:47.136Z,20.87
2018-05-27T06:21:47.153Z,20.92
2018-05-27T06:22:46.891Z,20.95
2018-05-27T06:23:47.224Z,20.92
2018-05-27T06:24:47.221Z,20.9
2018-05-27T06:25:47.419Z,20.93
2018-05-27T06:26:47.237Z,20.97
2018-05-27T06:27:46.997Z,21.02
2018-05-27T06:28:47.035Z,21.02
2018-05-27T06:29:47.309Z,21.14
2018-05-27T06:30:47.343Z,21.06
2018-05-27T06:31:47.092Z,21.12
2018-05-27T06:32:46.851Z,21.18
2018-05-27T06:33:47.166Z,21.2
2018-05-27T06:34:47.428Z,21.2
2018-05-27T06:35:47.437Z,21.22
2018-05-27T06:36:47.488Z,21.25
2018-05-27T06:37:47.519Z,21.32
2018-05-27T06:38:47.662Z,21.3
2018-05-27T06:39:47.543Z,21.32
2018-05-27T06:40:47.557Z,21.33
2018-05-27T06:41:47.377Z,21.36
2018-05-27T06:42:47.622Z,21.48
2018-05-27T06:43:47.632Z,21.35
2018-05-27T06:44:47.380Z,21.45
2018-05-27T06:45:47.417Z,21.42
2018-05-27T06:46:47.693Z,21.6
2018-05-27T06:47:47.720Z,21.6
2018-05-27T06:48:47.752Z,21.57
2018-05-27T06:49:47.789Z,21.66
2018-05-27T06:50:47.531Z,21.72
2018-05-27T06:51:47.828Z,21.75
2018-05-27T06:52:47.858Z,21.8
2018-05-27T06:53:47.850Z,21.91
2018-05-27T06:54:47.879Z,21.89
2018-05-27T06:55:47.924Z,22.04
2018-05-27T06:56:47.949Z,22.06
2018-05-27T06:57:47.415Z,22.17
2018-05-27T06:58:47.714Z,22.22
2018-05-27T06:59:47.740Z,22.26
2018-05-27T07:00:47.492Z,22.33
2018-05-27T07:01:47.843Z,22.38
2018-05-27T07:02:48.056Z,22.43
2018-05-27T07:03:47.834Z,22.48
2018-05-27T07:04:48.043Z,22.59
2018-05-27T07:05:47.860Z,22.6
2018-05-27T07:06:47.892Z,22.6
2018-05-27T07:07:48.184Z,22.68
2018-05-27T07:08:47.940Z,22.72
2018-05-27T07:09:47.955Z,22.8
2018-05-27T07:10:47.998Z,22.84
2018-05-27T07:11:48.093Z,22.9
2018-05-27T07:12:48.315Z,22.94
2018-05-27T07:13:48.342Z,23
2018-05-27T07:14:48.369Z,22.99
2018-05-27T07:15:48.093Z,23.13
2018-05-27T07:16:48.414Z,23.21
2018-05-27T07:17:48.413Z,23.25
2018-05-27T07:18:48.152Z,23.27
2018-05-27T07:19:48.194Z,23.32
2018-05-27T07:20:48.214Z,23.24
2018-05-27T07:21:48.253Z,23.39
2018-05-27T07:22:48.526Z,23.46
2018-05-27T07:23:48.581Z,23.5
2018-05-27T07:24:48.596Z,23.44
2018-05-27T07:25:48.345Z,23.54
2018-05-27T07:26:48.362Z,23.56
2018-05-27T07:27:48.653Z,23.62
2018-05-27T07:28:48.408Z,23.65
2018-05-27T07:29:48.687Z,23.59
2018-05-27T07:30:48.708Z,23.74
2018-05-27T07:31:48.494Z,23.74
2018-05-27T07:32:48.488Z,23.66
2018-05-27T07:33:48.792Z,23.71
2018-05-27T07:34:48.832Z,23.69
2018-05-27T07:35:48.576Z,23.77
2018-05-27T07:36:48.879Z,23.78
2018-05-27T07:37:48.885Z,23.76
2018-05-27T07:38:48.645Z,23.74
2018-05-27T07:39:48.654Z,23.81
2018-05-27T07:40:49.138Z,23.92
2018-05-27T07:41:48.430Z,23.87
2018-05-27T07:42:48.461Z,23.86
2018-05-27T07:43:48.778Z,23.86
2018-05-27T07:44:48.534Z,23.91
2018-05-27T07:45:48.802Z,23.95
2018-05-27T07:46:48.860Z,23.92
2018-05-27T07:47:49.132Z,24.02
2018-05-27T07:48:48.614Z,23.98
2018-05-27T07:49:49.171Z,24.01
2018-05-27T07:50:48.947Z,24.06
2018-05-27T07:51:49.225Z,24.02
2018-05-27T07:52:49.239Z,24.06
2018-05-27T07:53:49.287Z,24.13
2018-05-27T07:54:49.358Z,24.06
2018-05-27T07:55:49.075Z,24.08
2018-05-27T07:56:49.097Z,24.03
2018-05-27T07:57:49.176Z,24.21
2018-05-27T07:58:49.398Z,24.08
2018-05-27T07:59:49.416Z,24.08
2018-05-27T08:00:49.470Z,24.1
2018-05-27T08:01:49.691Z,24.13
2018-05-27T08:02:49.231Z,24.16
2018-05-27T08:03:49.504Z,24.14
2018-05-27T08:04:49.536Z,24.14
2018-05-27T08:05:49.314Z,24.18
2018-05-27T08:06:49.336Z,24.23
2018-05-27T08:07:49.345Z,24.23
2018-05-27T08:08:49.104Z,24.23
2018-05-27T08:09:49.402Z,24.28
2018-05-27T08:10:49.144Z,24.24
2018-05-27T08:11:49.698Z,24.33
2018-05-27T08:12:49.456Z,24.39
2018-05-27T08:13:49.495Z,24.42
2018-05-27T08:14:49.786Z,24.5
2018-05-27T08:15:49.312Z,24.39
2018-05-27T08:16:49.834Z,24.42
2018-05-27T08:17:49.591Z,24.55
2018-05-27T08:18:49.619Z,24.53
2018-05-27T08:19:49.679Z,24.58
2018-05-27T08:20:49.959Z,24.68
2018-05-27T08:21:49.428Z,24.6
2018-05-27T08:22:49.456Z,24.66
2018-05-27T08:23:49.747Z,24.65
2018-05-27T08:24:50.053Z,24.61
2018-05-27T08:25:50.070Z,24.74
2018-05-27T08:26:49.815Z,24.78
2018-05-27T08:27:49.838Z,24.77
2018-05-27T08:28:49.883Z,24.73
2018-05-27T08:29:50.155Z,24.74
2018-05-27T08:30:49.905Z,24.68
2018-05-27T08:31:49.925Z,24.86
2018-05-27T08:32:49.961Z,24.84
2018-05-27T08:33:49.985Z,24.86
2018-05-27T08:34:50.280Z,25.01
2018-05-27T08:35:50.043Z,24.92
2018-05-27T08:36:50.076Z,25.01
2018-05-27T08:37:50.361Z,25.01
2018-05-27T08:38:50.388Z,25.03
2018-05-27T08:39:50.413Z,25.11
2018-05-27T08:40:50.153Z,25.03
2018-05-27T08:41:50.198Z,25.11
2018-05-27T08:42:50.493Z,25.08
2018-05-27T08:43:50.234Z,25.13
2018-05-27T08:44:49.984Z,25.17
2018-05-27T08:45:50.299Z,25.18
2018-05-27T08:46:50.571Z,25.28
2018-05-27T08:47:50.337Z,25.26
2018-05-27T08:48:50.688Z,25.33
2018-05-27T08:49:50.683Z,25.31
2018-05-27T08:50:50.711Z,25.38
2018-05-27T08:51:50.720Z,25.47
2018-05-27T08:52:50.764Z,25.48
2018-05-27T08:53:50.498Z,25.47
2018-05-27T08:54:50.793Z,25.59
2018-05-27T08:55:50.816Z,25.5
2018-05-27T08:56:50.819Z,25.58
2018-05-27T08:57:50.583Z,25.6
2018-05-27T08:58:50.615Z,25.7
2018-05-27T08:59:50.925Z,25.73
2018-05-27T09:00:50.661Z,25.72
2018-05-27T09:01:51.253Z,25.8
2018-05-27T09:02:50.987Z,25.87
2018-05-27T09:03:51.186Z,25.87
2018-05-27T09:04:51.032Z,25.91
2018-05-27T09:05:51.062Z,25.98
2018-05-27T09:06:51.103Z,25.99
2018-05-27T09:07:50.897Z,26.03
2018-05-27T09:08:50.871Z,26.13
2018-05-27T09:09:51.178Z,26.06
2018-05-27T09:10:50.919Z,26.1
2018-05-27T09:11:51.229Z,26.07
2018-05-27T09:12:50.978Z,26.26
2018-05-27T09:13:50.724Z,26.21
2018-05-27T09:14:51.059Z,26.19
2018-05-27T09:15:50.778Z,26.22
2018-05-27T09:16:51.080Z,26.25
2018-05-27T09:17:51.164Z,26.22
2018-05-27T09:18:51.126Z,26.29
2018-05-27T09:19:50.893Z,26.25
2018-05-27T09:20:51.452Z,26.36
2018-05-27T09:21:51.215Z,26.38
2018-05-27T09:22:51.288Z,26.45
2018-05-27T09:23:50.995Z,26.44
2018-05-27T09:24:51.334Z,26.56
2018-05-27T09:25:51.311Z,26.55
2018-05-27T09:26:51.084Z,26.6
2018-05-27T09:27:51.402Z,26.59
2018-05-27T09:28:51.660Z,26.63
2018-05-27T09:29:51.407Z,26.75
2018-05-27T09:30:51.522Z,26.77
2018-05-27T09:31:51.748Z,26.81
2018-05-27T09:32:51.498Z,26.84
2018-05-27T09:33:51.796Z,26.83
2018-05-27T09:34:51.817Z,26.75
2018-05-27T09:35:51.587Z,26.77
2018-05-27T09:36:51.618Z,26.83
2018-05-27T09:37:51.890Z,26.83
2018-05-27T09:38:51.671Z,26.85
2018-05-27T09:39:51.946Z,26.88
2018-05-27T09:40:51.972Z,26.85
2018-05-27T09:41:52.088Z,26.84
2018-05-27T09:42:52.044Z,26.84
2018-05-27T09:43:51.808Z,26.83
2018-05-27T09:44:52.105Z,26.81
2018-05-27T09:45:52.115Z,26.84
2018-05-27T09:46:51.603Z,26.8
2018-05-27T09:47:52.161Z,26.74
2018-05-27T09:48:52.173Z,26.74
2018-05-27T09:49:52.225Z,26.83
2018-05-27T09:50:52.243Z,26.75
2018-05-27T09:51:52.293Z,26.85
2018-05-27T09:52:52.325Z,26.84
2018-05-27T09:53:52.314Z,26.81
2018-05-27T09:54:52.352Z,26.85
2018-05-27T09:55:52.123Z,26.88
2018-05-27T09:56:52.419Z,26.81
2018-05-27T09:57:52.232Z,26.83
2018-05-27T09:58:52.257Z,26.9
2018-05-27T09:59:52.516Z,26.95
2018-05-27T10:00:52.526Z,26.95
2018-05-27T10:01:52.549Z,26.92
2018-05-27T10:02:52.559Z,26.93
2018-05-27T10:03:52.608Z,26.95
2018-05-27T10:04:52.648Z,27.07
2018-05-27T10:05:52.630Z,27.03
2018-05-27T10:06:52.416Z,27.02
2018-05-27T10:07:52.431Z,27.08
2018-05-27T10:08:52.735Z,27.03
2018-05-27T10:09:52.487Z,27.18
2018-05-27T10:10:52.794Z,27.17
2018-05-27T10:11:52.618Z,27.25
2018-05-27T10:12:52.954Z,27.3
2018-05-27T10:13:52.866Z,27.29
2018-05-27T10:14:52.896Z,27.36
2018-05-27T10:15:52.642Z,27.37
2018-05-27T10:16:52.679Z,27.45
2018-05-27T10:17:52.963Z,27.36
2018-05-27T10:18:53.033Z,27.47
2018-05-27T10:19:52.764Z,27.48
2018-05-27T10:20:53.051Z,27.55
2018-05-27T10:21:52.812Z,27.51
2018-05-27T10:22:53.125Z,27.42
2018-05-27T10:23:52.854Z,27.54
2018-05-27T10:24:52.875Z,27.55
2018-05-27T10:25:53.412Z,27.6
2018-05-27T10:26:52.957Z,27.58
2018-05-27T10:27:53.293Z,27.63
2018-05-27T10:28:53.274Z,27.67
2018-05-27T10:29:53.297Z,27.6
2018-05-27T10:30:53.060Z,27.67
2018-05-27T10:31:53.084Z,27.64
2018-05-27T10:32:53.511Z,27.64
2018-05-27T10:33:53.147Z,27.71
2018-05-27T10:34:53.150Z,27.67
2018-05-27T10:35:53.439Z,27.73
2018-05-27T10:36:53.483Z,27.7
2018-05-27T10:37:53.504Z,27.71
2018-05-27T10:38:53.256Z,27.68
2018-05-27T10:39:53.562Z,27.68
2018-05-27T10:40:53.574Z,27.82
2018-05-27T10:41:53.611Z,27.77
2018-05-27T10:42:53.370Z,27.78
2018-05-27T10:43:53.695Z,27.75
2018-05-27T10:44:53.427Z,27.74
2018-05-27T10:45:53.738Z,27.75
2018-05-27T10:46:53.747Z,27.82
2018-05-27T10:47:53.520Z,27.78
2018-05-27T10:48:53.825Z,27.78
2018-05-27T10:49:53.571Z,27.77
2018-05-27T10:50:53.608Z,27.82
2018-05-27T10:51:53.896Z,27.92
2018-05-27T10:52:53.932Z,27.87
2018-05-27T10:53:53.926Z,27.95
2018-05-27T10:54:53.997Z,28
2018-05-27T10:55:54.008Z,27.96
2018-05-27T10:56:53.489Z,28.07
2018-05-27T10:57:54.046Z,28.02
2018-05-27T10:58:54.148Z,28.01
2018-05-27T10:59:54.242Z,28.07
2018-05-27T11:00:53.859Z,28.19
2018-05-27T11:01:53.916Z,28.25
2018-05-27T11:02:53.925Z,28.29
2018-05-27T11:03:54.023Z,28.48
2018-05-27T11:04:54.010Z,28.56
2018-05-27T11:05:54.688Z,28.66
2018-05-27T11:06:54.322Z,28.7
2018-05-27T11:07:54.328Z,28.85
2018-05-27T11:08:54.197Z,28.91
2018-05-27T11:09:54.390Z,28.98
2018-05-27T11:10:54.420Z,29.17
2018-05-27T11:11:54.161Z,29.29
2018-05-27T11:12:54.496Z,29.29
2018-05-27T11:13:54.571Z,29.41
2018-05-27T11:14:54.515Z,29.53
2018-05-27T11:15:54.310Z,29.54
2018-05-27T11:16:54.388Z,29.56
2018-05-27T11:17:54.632Z,29.71
2018-05-27T11:18:54.434Z,29.86
2018-05-27T11:19:54.694Z,29.87
2018-05-27T11:20:54.428Z,29.98
2018-05-27T11:21:54.750Z,30.05
2018-05-27T11:22:54.746Z,30.23
2018-05-27T11:23:54.837Z,30.27
2018-05-27T11:24:54.830Z,30.47
2018-05-27T11:25:54.834Z,30.47
2018-05-27T11:26:54.891Z,30.53
2018-05-27T11:27:54.901Z,30.59
2018-05-27T11:28:54.932Z,30.77
2018-05-27T11:29:54.790Z,30.88
2018-05-27T11:30:55.007Z,30.97
2018-05-27T11:31:55.008Z,31.14
2018-05-27T11:32:55.042Z,31.28
2018-05-27T11:33:55.091Z,31.36
2018-05-27T11:34:55.097Z,31.43
2018-05-27T11:35:55.122Z,31.61
2018-05-27T11:36:54.965Z,31.64
2018-05-27T11:37:54.911Z,31.73
2018-05-27T11:38:55.197Z,31.84
2018-05-27T11:39:55.272Z,31.92
2018-05-27T11:40:55.313Z,32.01
2018-05-27T11:41:54.750Z,32.15
2018-05-27T11:42:55.332Z,32.36
2018-05-27T11:43:55.371Z,32.45
2018-05-27T11:44:55.377Z,32.46
2018-05-27T11:45:55.154Z,32.65
2018-05-27T11:46:55.188Z,32.7
2018-05-27T11:47:55.486Z,32.82
2018-05-27T11:48:55.509Z,32.82
2018-05-27T11:49:55.547Z,33
2018-05-27T11:50:55.581Z,33
2018-05-27T11:51:55.597Z,33.17
2018-05-27T11:52:55.339Z,33.19
2018-05-27T11:53:55.673Z,33.3
2018-05-27T11:54:55.430Z,33.34
2018-05-27T11:55:55.716Z,33.37
2018-05-27T11:56:55.482Z,33.53
2018-05-27T11:57:55.502Z,33.57
2018-05-27T11:58:55.539Z,33.67
2018-05-27T11:59:55.312Z,33.79
2018-05-27T12:00:55.866Z,33.83
2018-05-27T12:01:55.614Z,33.94
2018-05-27T12:02:55.399Z,34.01
2018-05-27T12:03:55.427Z,34.14
2018-05-27T12:04:55.741Z,34.24
2018-05-27T12:05:56.004Z,34.33
2018-05-27T12:06:56.074Z,34.36
2018-05-27T12:07:55.812Z,34.47
2018-05-27T12:08:55.849Z,34.55
2018-05-27T12:09:56.195Z,34.62
2018-05-27T12:10:55.896Z,34.7
2018-05-27T12:11:56.212Z,34.7
2018-05-27T12:12:55.982Z,34.74
2018-05-27T12:13:56.286Z,34.77
2018-05-27T12:14:56.288Z,34.92
2018-05-27T12:15:56.054Z,34.99
2018-05-27T12:16:56.089Z,34.99
2018-05-27T12:17:56.124Z,35.05
2018-05-27T12:18:56.142Z,35.14
2018-05-27T12:19:56.458Z,35.14
2018-05-27T12:20:56.476Z,35.08
2018-05-27T12:21:56.519Z,35.17
2018-05-27T12:22:56.544Z,35.11
2018-05-27T12:23:56.315Z,35.11
2018-05-27T12:24:56.609Z,35.24
2018-05-27T12:25:56.389Z,35.18
2018-05-27T12:26:56.684Z,35.27
2018-05-27T12:27:56.699Z,35.27
2018-05-27T12:28:56.467Z,35.31
2018-05-27T12:29:57.190Z,35.3
2018-05-27T12:30:56.532Z,35.3
2018-05-27T12:31:56.832Z,35.37
2018-05-27T12:32:56.329Z,35.41
2018-05-27T12:33:56.627Z,35.45
2018-05-27T12:34:56.928Z,35.56
2018-05-27T12:35:56.697Z,35.6
2018-05-27T12:36:57.133Z,35.67
2018-05-27T12:37:57.028Z,35.74
2018-05-27T12:38:57.061Z,35.74
2018-05-27T12:39:57.095Z,35.73
2018-05-27T12:40:57.123Z,35.79
2018-05-27T12:41:57.165Z,35.8
2018-05-27T12:42:56.914Z,35.82
2018-05-27T12:43:57.237Z,35.79
2018-05-27T12:44:57.035Z,35.73
2018-05-27T12:45:57.294Z,35.86
2018-05-27T12:46:57.039Z,35.76
2018-05-27T12:47:57.080Z,35.78
2018-05-27T12:48:57.387Z,35.73
2018-05-27T12:49:57.204Z,35.73
2018-05-27T12:50:57.477Z,35.78
2018-05-27T12:51:57.475Z,35.82
2018-05-27T12:52:57.507Z,35.79
2018-05-27T12:53:57.255Z,35.78
2018-05-27T12:54:57.606Z,35.82
2018-05-27T12:55:57.622Z,35.79